Time;durP1;ratioP1;P1;durP2;ratioP2;P2;SDS_P1;SDS_P2;PMS_P1;PMS_P2;Temp;Humidity;BMP_temperature;BMP_pressure;BME280_temperature;BME280_humidity;BME280_pressure;Samples;Min_cycle;Max_cycle;Signal;HPM_P1;HPM_P2
2022/03/10 00:01:20;;;;;;;36.95;20.00;;;;;;;3.58;61.63;102291.47;5049258;28;20013;-79
2022/03/10 00:03:45;;;;;;;36.15;18.48;;;;;;;3.52;61.64;102293.59;5058608;28;20024;-79
2022/03/10 00:06:11;;;;;;;37.10;20.20;;;;;;;3.46;61.60;102295.69;5046343;28;20025;-79
2022/03/10 00:08:36;;;;;;;39.78;21.38;;;;;;;3.41;61.34;102295.34;5051546;28;20011;-79
2022/03/10 00:11:01;;;;;;;41.38;20.65;;;;;;;3.38;61.98;102296.81;5052748;28;20021;-79
2022/03/10 00:13:30;;;;;;;41.85;20.63;;;;;;;3.38;61.44;102307.13;5044281;28;20052;-79
2022/03/10 00:15:55;;;;;;;38.67;19.67;;;;;;;3.36;61.25;102308.66;5049961;28;20036;-79
2022/03/10 00:18:21;;;;;;;41.47;20.85;;;;;;;3.31;61.03;102303.16;5050571;28;20033;-79
2022/03/10 00:20:46;;;;;;;42.28;19.55;;;;;;;3.27;61.57;102302.03;5034506;28;20089;-79
2022/03/10 00:23:11;;;;;;;38.78;19.40;;;;;;;3.23;61.18;102302.59;5050513;28;20025;-79
2022/03/10 00:25:37;;;;;;;39.58;20.00;;;;;;;3.20;60.53;102306.59;5046717;28;20283;-79
2022/03/10 00:28:03;;;;;;;38.00;19.75;;;;;;;3.17;61.09;102301.19;5053620;28;20010;-78
2022/03/10 00:30:29;;;;;;;40.22;21.10;;;;;;;3.13;61.27;102306.13;5042257;28;20013;-78
2022/03/10 00:32:54;;;;;;;42.17;20.98;;;;;;;3.08;61.12;102304.84;5042364;28;20216;-78
2022/03/10 00:35:22;;;;;;;44.75;20.90;;;;;;;3.05;62.15;102301.16;5055438;28;20209;-78
2022/03/10 00:37:48;;;;;;;40.67;19.88;;;;;;;3.00;62.20;102308.53;5051356;28;20020;-78
2022/03/10 00:40:15;;;;;;;40.08;19.85;;;;;;;2.95;62.03;102305.59;5045745;28;20017;-78
2022/03/10 00:42:42;;;;;;;39.25;19.70;;;;;;;2.91;61.89;102300.06;5048101;28;20028;-78
2022/03/10 00:45:08;;;;;;;41.35;20.05;;;;;;;2.88;61.92;102311.06;5043188;28;20010;-79
2022/03/10 00:47:34;;;;;;;39.72;19.70;;;;;;;2.83;61.83;102308.88;5045970;28;20021;-79
2022/03/10 00:50:00;;;;;;;44.08;19.95;;;;;;;2.80;61.94;102309.53;5045908;28;20139;-79
2022/03/10 00:52:25;;;;;;;40.50;20.45;;;;;;;2.78;62.08;102309.41;5048609;28;20009;-79
2022/03/10 00:54:50;;;;;;;42.58;20.13;;;;;;;2.73;62.43;102309.84;5045504;28;20025;-79
2022/03/10 00:57:16;;;;;;;42.15;20.35;;;;;;;2.70;62.59;102313.06;5048010;28;20092;-80
2022/03/10 00:59:41;;;;;;;41.78;20.67;;;;;;;2.66;62.41;102311.00;5043559;28;20323;-80
2022/03/10 01:02:06;;;;;;;38.58;19.35;;;;;;;2.61;62.96;102312.34;5041724;28;20056;-80
2022/03/10 01:04:31;;;;;;;44.30;20.23;;;;;;;2.57;63.55;102311.19;5034402;28;20006;-80
2022/03/10 01:06:57;;;;;;;43.58;20.10;;;;;;;2.56;63.06;102316.22;5044486;28;20304;-80
2022/03/10 01:09:22;;;;;;;41.42;20.52;;;;;;;2.58;64.90;102312.97;5043564;28;20026;-80
2022/03/10 01:11:47;;;;;;;44.47;20.52;;;;;;;2.67;65.56;102309.34;5043185;28;20031;-80
2022/03/10 01:14:13;;;;;;;39.50;20.13;;;;;;;2.76;65.38;102325.50;5042943;28;20191;-80
2022/03/10 01:16:38;;;;;;;44.33;21.88;;;;;;;2.84;65.45;102311.59;5048065;28;20045;-80
2022/03/10 01:19:04;;;;;;;41.20;19.98;;;;;;;2.94;65.60;102318.31;5054594;28;20044;-80
2022/03/10 01:21:29;;;;;;;42.53;20.63;;;;;;;3.00;65.14;102317.91;5049948;28;20168;-80
2022/03/10 01:23:54;;;;;;;41.80;19.92;;;;;;;3.05;64.99;102308.88;5056530;28;20104;-81
2022/03/10 01:26:20;;;;;;;42.50;20.98;;;;;;;3.08;64.88;102307.44;5054035;28;20054;-79
2022/03/10 01:28:45;;;;;;;41.85;20.88;;;;;;;3.10;64.65;102310.13;5041132;28;20041;-80
2022/03/10 01:31:10;;;;;;;42.08;20.15;;;;;;;3.09;64.27;102300.63;5045483;28;20091;-80
2022/03/10 01:33:36;;;;;;;41.50;19.85;;;;;;;3.10;64.71;102304.97;5048670;28;20017;-79
2022/03/10 01:36:01;;;;;;;42.17;20.27;;;;;;;3.11;64.66;102299.03;5052383;28;20029;-80
2022/03/10 01:38:26;;;;;;;41.00;20.08;;;;;;;3.13;63.70;102307.81;5056577;28;20075;-80
2022/03/10 01:40:52;;;;;;;38.28;19.38;;;;;;;3.16;64.11;102302.88;5052941;28;20017;-80
2022/03/10 01:43:17;;;;;;;42.17;19.27;;;;;;;3.17;64.25;102309.81;5058443;28;20032;-80
2022/03/10 01:45:42;;;;;;;43.38;21.02;;;;;;;3.16;64.33;102299.41;5050293;28;20223;-79
2022/03/10 01:48:08;;;;;;;42.13;20.45;;;;;;;3.14;64.64;102307.00;5057536;28;20041;-79
2022/03/10 01:50:33;;;;;;;44.60;20.70;;;;;;;3.12;64.72;102300.84;5043508;28;20009;-79
2022/03/10 01:53:01;;;;;;;43.05;20.15;;;;;;;3.12;64.80;102308.56;5050713;28;20025;-79
2022/03/10 01:55:26;;;;;;;43.47;20.77;;;;;;;3.12;64.81;102306.00;5049189;28;20025;-79
2022/03/10 01:57:52;;;;;;;44.92;20.95;;;;;;;3.12;64.70;102298.28;5049335;28;20434;-79
2022/03/10 02:00:17;;;;;;;39.58;20.02;;;;;;;3.11;64.51;102293.91;5053836;28;20172;-79
2022/03/10 02:02:43;;;;;;;42.22;19.63;;;;;;;3.13;64.47;102302.66;5044254;28;20045;-79
2022/03/10 02:05:08;;;;;;;43.88;21.27;;;;;;;3.11;64.89;102292.25;5051176;28;20021;-79
2022/03/10 02:10:18;;;;;;;47.10;20.25;;;;;;;3.10;64.66;102293.00;5028141;28;20293;-79
2022/03/10 02:12:48;;;;;;;38.47;19.70;;;;;;;3.09;64.83;102291.22;5041215;28;20100;-79
2022/03/10 02:18:03;;;;;;;;;;;;;;;3.13;63.29;102287.22;5050847;28;20102;-79
2022/03/10 02:20:29;;;;;;;42.85;20.13;;;;;;;3.09;64.62;102280.91;5043060;28;20139;-78
2022/03/10 02:22:54;;;;;;;43.05;19.88;;;;;;;3.07;65.11;102294.44;5049117;28;20155;-78
2022/03/10 02:25:22;;;;;;;41.33;20.35;;;;;;;3.04;65.10;102289.06;5043628;28;20025;-78
2022/03/10 02:27:52;;;;;;;44.63;20.67;;;;;;;2.97;64.90;102292.84;5044580;28;20037;-79
2022/03/10 02:30:20;;;;;;;39.40;20.85;;;;;;;2.92;65.35;102295.03;5040476;28;20270;-79
2022/03/10 02:32:46;;;;;;;43.67;20.08;;;;;;;2.87;65.37;102296.38;5055861;28;20050;-79
2022/03/10 02:35:12;;;;;;;40.05;19.98;;;;;;;2.87;65.36;102292.88;5053059;28;20028;-79
2022/03/10 02:37:38;;;;;;;44.65;21.50;;;;;;;2.84;65.55;102295.22;5052636;28;20056;-79
2022/03/10 02:40:04;;;;;;;42.90;21.05;;;;;;;2.81;65.98;102293.31;5046641;28;20021;-79
2022/03/10 02:42:31;;;;;;;43.92;20.65;;;;;;;2.80;65.81;102288.94;5049183;28;20053;-79
2022/03/10 02:44:57;;;;;;;37.53;19.67;;;;;;;2.78;65.75;102291.41;5042470;28;20268;-79
2022/03/10 02:47:22;;;;;;;43.28;21.02;;;;;;;2.79;66.39;102292.28;5058344;28;20041;-79
2022/03/10 02:49:47;;;;;;;41.08;20.58;;;;;;;2.77;66.00;102296.44;5047995;28;20283;-79
2022/03/10 02:52:13;;;;;;;44.67;20.02;;;;;;;2.73;66.24;102294.38;5046816;28;20034;-79
2022/03/10 02:54:38;;;;;;;43.20;21.42;;;;;;;2.71;66.21;102291.69;5048979;28;20179;-79
2022/03/10 02:57:04;;;;;;;47.88;21.30;;;;;;;2.71;66.54;102290.78;5051508;28;20040;-77
2022/03/10 02:59:29;;;;;;;41.08;20.63;;;;;;;2.72;66.59;102296.06;5042413;28;20070;-77
2022/03/10 03:01:56;;;;;;;42.95;21.33;;;;;;;2.71;66.66;102290.78;5048861;28;20048;-77
2022/03/10 03:04:22;;;;;;;45.67;20.75;;;;;;;2.70;66.35;102291.59;5049377;28;20024;-77
2022/03/10 03:06:47;;;;;;;40.95;20.38;;;;;;;2.67;66.80;102296.50;5045929;28;20052;-77
2022/03/10 03:09:12;;;;;;;38.60;19.95;;;;;;;2.67;66.48;102291.34;5050545;28;20267;-77
2022/03/10 03:11:37;;;;;;;42.42;21.38;;;;;;;2.65;66.29;102287.72;5046123;28;20029;-77
2022/03/10 03:14:04;;;;;;;42.50;19.48;;;;;;;2.63;66.78;102284.16;5052833;28;20044;-77
2022/03/10 03:16:30;;;;;;;39.05;19.80;;;;;;;2.60;66.55;102295.09;5056658;28;20033;-76
2022/03/10 03:18:56;;;;;;;43.50;20.85;;;;;;;2.58;66.46;102300.13;5051754;28;20025;-76
2022/03/10 03:21:23;;;;;;;41.80;19.80;;;;;;;2.55;66.52;102299.88;5044739;28;20013;-76
2022/03/10 03:23:49;;;;;;;44.17;21.67;;;;;;;2.53;66.59;102297.97;5057102;28;20037;-76
2022/03/10 03:26:14;;;;;;;42.25;19.98;;;;;;;2.53;67.26;102305.66;5054042;28;20048;-76
2022/03/10 03:28:41;;;;;;;42.58;19.77;;;;;;;2.51;66.75;102300.41;5052822;28;20140;-76
2022/03/10 03:31:07;;;;;;;43.58;20.30;;;;;;;2.49;67.13;102307.13;5041727;28;20025;-76
2022/03/10 03:33:32;;;;;;;43.95;20.90;;;;;;;2.48;66.75;102315.59;5053888;28;20278;-76
2022/03/10 03:35:58;;;;;;;41.67;20.05;;;;;;;2.45;67.13;102310.22;5046848;28;20399;-76
2022/03/10 03:38:24;;;;;;;42.42;19.58;;;;;;;2.42;66.95;102310.88;5045729;28;20056;-76
2022/03/10 03:40:49;;;;;;;42.85;19.77;;;;;;;2.38;67.12;102316.53;5044520;28;20041;-76
2022/03/10 03:43:15;;;;;;;38.55;19.52;;;;;;;2.37;67.21;102313.84;5046901;28;20013;-76
2022/03/10 03:45:40;;;;;;;43.60;19.42;;;;;;;2.33;67.65;102310.13;5047604;28;20025;-76
2022/03/10 03:48:06;;;;;;;44.85;19.90;;;;;;;2.31;66.64;102313.34;5042816;28;20268;-76
2022/03/10 03:50:31;;;;;;;43.92;20.25;;;;;;;2.28;67.76;102307.97;5042854;28;20013;-76
2022/03/10 03:52:56;;;;;;;39.97;19.75;;;;;;;2.26;67.52;102313.88;5058195;28;20264;-76
2022/03/10 03:55:22;;;;;;;39.78;19.75;;;;;;;2.24;67.86;102317.09;5049526;28;20017;-76
2022/03/10 03:57:47;;;;;;;42.05;19.17;;;;;;;2.23;67.04;102318.78;5047466;28;20028;-79
2022/03/10 04:00:13;;;;;;;44.38;19.92;;;;;;;2.22;67.66;102316.97;5046719;28;20089;-79
2022/03/10 04:02:38;;;;;;;42.97;20.27;;;;;;;2.18;67.01;102322.63;5050042;28;20100;-79
2022/03/10 04:05:04;;;;;;;44.88;19.80;;;;;;;2.12;67.13;102329.84;5055417;28;20022;-79
2022/03/10 04:07:29;;;;;;;40.45;19.05;;;;;;;2.09;67.83;102327.03;5049280;28;20025;-79
2022/03/10 04:09:54;;;;;;;43.67;20.90;;;;;;;2.02;68.35;102322.16;5047636;28;20068;-79
2022/03/10 04:12:20;;;;;;;40.63;19.92;;;;;;;1.97;67.82;102333.72;5048199;28;20079;-79
2022/03/10 04:14:45;;;;;;;48.58;21.17;;;;;;;1.89;67.82;102326.28;5043160;28;20029;-79
2022/03/10 04:17:10;;;;;;;43.97;18.80;;;;;;;1.86;67.83;102333.75;5056977;28;20279;-80
2022/03/10 04:19:36;;;;;;;43.30;19.90;;;;;;;1.82;66.87;102334.25;5052736;28;20049;-79
2022/03/10 04:22:01;;;;;;;43.53;20.65;;;;;;;1.75;67.54;102331.94;5043988;28;20017;-80
2022/03/10 04:24:26;;;;;;;39.40;19.50;;;;;;;1.72;68.20;102334.25;5053542;28;20028;-80
2022/03/10 04:26:52;;;;;;;38.58;18.73;;;;;;;1.68;68.08;102329.63;5055131;28;20111;-80
2022/03/10 04:29:17;;;;;;;42.17;19.45;;;;;;;1.62;67.86;102329.13;5055392;28;20208;-80
2022/03/10 04:31:43;;;;;;;42.00;19.50;;;;;;;1.59;67.79;102328.88;5039816;28;20180;-80
2022/03/10 04:34:09;;;;;;;44.45;19.83;;;;;;;1.57;68.17;102331.31;5045842;28;20096;-81
2022/03/10 04:36:34;;;;;;;41.05;20.02;;;;;;;1.53;67.64;102335.28;5034938;28;20014;-80
2022/03/10 04:39:00;;;;;;;41.13;19.25;;;;;;;1.49;68.59;102330.69;5054772;28;20084;-80
2022/03/10 04:41:26;;;;;;;42.38;20.45;;;;;;;1.46;68.68;102332.06;5044284;28;20023;-80
2022/03/10 04:43:51;;;;;;;40.35;19.35;;;;;;;1.42;68.69;102336.06;5052889;28;20269;-81
2022/03/10 04:46:17;;;;;;;38.47;18.25;;;;;;;1.39;68.63;102336.72;5050369;28;20108;-80
2022/03/10 04:48:42;;;;;;;39.92;18.15;;;;;;;1.35;68.30;102334.63;5047651;28;20032;-80
2022/03/10 04:51:08;;;;;;;44.38;19.88;;;;;;;1.32;67.84;102338.63;5044406;28;20021;-81
2022/03/10 04:53:33;;;;;;;41.33;19.13;;;;;;;1.30;68.38;102332.44;5048034;28;20040;-80
2022/03/10 04:55:58;;;;;;;43.28;19.13;;;;;;;1.26;68.27;102333.88;5044407;28;20133;-80
2022/03/10 04:58:24;;;;;;;43.90;18.95;;;;;;;1.21;68.78;102325.75;5052379;28;20165;-80
2022/03/10 05:00:49;;;;;;;39.08;18.20;;;;;;;1.19;68.44;102323.84;5046062;28;20236;-80
2022/03/10 05:03:15;;;;;;;46.25;19.65;;;;;;;1.17;68.89;102327.94;5047569;28;20028;-80
2022/03/10 05:05:40;;;;;;;40.67;18.92;;;;;;;1.13;68.83;102326.78;5044257;28;20036;-80
2022/03/10 05:08:06;;;;;;;42.45;19.08;;;;;;;1.13;69.76;102331.91;5049072;28;20091;-76
2022/03/10 05:10:31;;;;;;;40.00;18.73;;;;;;;1.11;68.68;102336.00;5044393;28;20017;-76
2022/03/10 05:13:00;;;;;;;41.13;19.13;;;;;;;1.10;68.09;102341.00;5051066;28;20101;-76
2022/03/10 05:15:26;;;;;;;41.33;18.77;;;;;;;1.04;68.28;102342.28;5050617;28;20106;-76
2022/03/10 05:17:52;;;;;;;40.92;18.42;;;;;;;1.01;68.64;102346.25;5051394;28;20024;-76
2022/03/10 05:20:19;;;;;;;39.47;18.60;;;;;;;0.97;68.83;102344.19;5043689;28;20077;-76
2022/03/10 05:22:46;;;;;;;41.72;19.40;;;;;;;0.95;69.48;102343.16;5042954;28;20017;-76
2022/03/10 05:25:14;;;;;;;37.75;17.13;;;;;;;0.94;68.45;102344.84;5043435;28;20282;-76
2022/03/10 05:27:39;;;;;;;41.50;18.70;;;;;;;0.92;68.41;102340.34;5048463;28;20052;-76
2022/03/10 05:30:05;;;;;;;39.58;18.67;;;;;;;0.90;68.82;102342.78;5042486;28;20016;-76
2022/03/10 05:32:31;;;;;;;41.50;19.35;;;;;;;0.85;68.78;102339.81;5039951;28;20120;-76
2022/03/10 05:34:56;;;;;;;40.35;19.10;;;;;;;0.83;69.23;102340.44;5054781;28;20040;-76
2022/03/10 05:37:22;;;;;;;41.50;18.58;;;;;;;0.83;68.73;102341.31;5044615;28;20025;-80
2022/03/10 05:39:48;;;;;;;40.50;18.77;;;;;;;0.81;69.65;102337.75;5046579;28;20247;-80
2022/03/10 05:42:13;;;;;;;42.70;18.35;;;;;;;0.79;69.41;102341.81;5043314;28;20032;-80
2022/03/10 05:44:39;;;;;;;43.15;19.02;;;;;;;0.77;69.63;102339.88;5037677;28;20033;-79
2022/03/10 05:47:06;;;;;;;43.40;19.55;;;;;;;0.73;69.59;102342.97;5034569;28;20796;-80
2022/03/10 05:49:31;;;;;;;42.00;20.27;;;;;;;0.71;68.98;102341.91;5045684;28;20084;-79
2022/03/10 05:51:56;;;;;;;41.28;19.27;;;;;;;0.68;69.33;102345.09;5052288;28;20044;-80
2022/03/10 05:54:22;;;;;;;41.22;19.27;;;;;;;0.68;69.81;102345.09;5045471;28;20187;-80
2022/03/10 05:56:47;;;;;;;44.10;18.67;;;;;;;0.66;69.88;102341.50;5042099;28;20091;-79
2022/03/10 05:59:12;;;;;;;41.47;18.75;;;;;;;0.66;69.46;102349.22;5055634;28;20017;-79
2022/03/10 06:01:38;;;;;;;41.08;18.92;;;;;;;0.64;69.54;102343.94;5044174;28;20048;-79
2022/03/10 06:04:03;;;;;;;39.85;18.85;;;;;;;0.63;70.13;102334.44;5044346;28;20021;-79
2022/03/10 06:06:28;;;;;;;38.85;19.00;;;;;;;0.63;70.78;102346.38;5053076;28;20030;-76
2022/03/10 06:08:54;;;;;;;39.78;18.73;;;;;;;0.63;71.14;102336.13;5056512;28;20283;-76
2022/03/10 06:11:19;;;;;;;41.22;19.17;;;;;;;0.64;71.23;102343.06;5053407;28;20179;-76
2022/03/10 06:13:44;;;;;;;43.05;19.38;;;;;;;0.63;70.67;102341.25;5053512;28;20025;-76
2022/03/10 06:16:10;;;;;;;44.28;19.23;;;;;;;0.63;70.92;102341.25;5058424;28;20352;-76
2022/03/10 06:18:35;;;;;;;40.58;19.33;;;;;;;0.63;71.24;102346.38;5049527;28;20017;-76
2022/03/10 06:21:00;;;;;;;42.30;19.17;;;;;;;0.62;70.93;102342.94;5052357;28;20025;-76
2022/03/10 06:23:26;;;;;;;43.35;18.70;;;;;;;0.64;70.87;102337.94;5060685;28;20052;-76
2022/03/10 06:25:51;;;;;;;42.10;19.15;;;;;;;0.66;71.35;102342.41;5060910;28;20032;-76
2022/03/10 06:28:16;;;;;;;44.42;19.60;;;;;;;0.69;71.27;102345.22;5045098;28;20044;-76
2022/03/10 06:30:42;;;;;;;43.45;19.20;;;;;;;0.76;71.09;102350.94;5047949;28;20025;-76
2022/03/10 06:33:07;;;;;;;41.60;19.10;;;;;;;0.81;71.75;102345.44;5048735;28;20256;-76
2022/03/10 06:35:32;;;;;;;41.30;19.38;;;;;;;0.88;71.51;102346.84;5059218;28;20025;-76
2022/03/10 06:37:58;;;;;;;39.42;19.00;;;;;;;0.94;71.52;102349.06;5055632;28;20060;-76
2022/03/10 06:40:23;;;;;;;41.45;19.38;;;;;;;1.01;71.19;102346.25;5061903;28;20051;-76
2022/03/10 06:42:48;;;;;;;38.38;18.00;;;;;;;1.07;71.25;102349.34;5052570;28;20100;-76
2022/03/10 06:45:14;;;;;;;44.60;19.73;;;;;;;1.14;71.10;102343.97;5041291;28;20327;-76
2022/03/10 06:47:40;;;;;;;44.10;19.30;;;;;;;1.21;70.47;102355.66;5045431;28;20021;-76
2022/03/10 06:50:06;;;;;;;40.92;20.00;;;;;;;1.29;70.98;102359.81;5051712;28;20108;-76
2022/03/10 06:52:32;;;;;;;37.95;18.30;;;;;;;1.38;70.31;102358.00;5047728;28;20033;-76
2022/03/10 06:54:57;;;;;;;42.60;19.27;;;;;;;1.47;69.47;102363.03;5047453;28;20033;-76
2022/03/10 06:57:22;;;;;;;42.67;19.52;;;;;;;1.54;69.64;102361.88;5045797;28;20021;-76
2022/03/10 06:59:47;;;;;;;41.53;18.33;;;;;;;1.65;69.62;102365.34;5042818;28;20036;-76
2022/03/10 07:02:15;;;;;;;40.72;18.58;;;;;;;1.84;68.94;102367.78;5046473;28;20025;-76
2022/03/10 07:04:40;;;;;;;45.55;18.73;;;;;;;1.91;68.32;102365.88;5046358;28;20028;-76
2022/03/10 07:07:05;;;;;;;43.70;18.92;;;;;;;1.99;68.39;102363.94;5046242;28;20021;-79
2022/03/10 07:09:31;;;;;;;41.40;18.90;;;;;;;2.03;68.77;102368.56;5040040;28;20275;-79
2022/03/10 07:11:58;;;;;;;39.13;18.70;;;;;;;2.06;68.85;102368.81;5046139;28;20021;-78
2022/03/10 07:14:24;;;;;;;47.13;20.10;;;;;;;2.11;68.47;102368.28;5044955;28;20135;-79
2022/03/10 07:16:49;;;;;;;41.65;19.63;;;;;;;2.20;68.43;102371.59;5058193;28;20045;-79
2022/03/10 07:19:14;;;;;;;44.00;19.75;;;;;;;2.29;68.20;102369.81;5050011;28;20027;-79
2022/03/10 07:21:40;;;;;;;39.22;19.05;;;;;;;2.36;68.15;102360.91;5047675;28;20258;-79
2022/03/10 07:24:06;;;;;;;44.75;20.02;;;;;;;2.44;68.42;102365.00;5050005;28;20034;-78
2022/03/10 07:26:31;;;;;;;40.08;18.77;;;;;;;2.54;68.59;102366.66;5045941;28;20025;-78
2022/03/10 07:28:59;;;;;;;41.13;18.83;;;;;;;2.60;67.60;102372.28;5041797;28;20025;-78
2022/03/10 07:31:33;;;;;;;43.05;20.02;;;;;;;2.62;68.01;102375.88;5045488;28;20021;-78
2022/03/10 07:33:59;;;;;;;38.95;19.52;;;;;;;2.74;67.81;102382.03;5049569;28;20032;-78
2022/03/10 07:36:24;;;;;;;47.67;19.63;;;;;;;3.02;67.48;102371.34;5045447;28;20025;-76
2022/03/10 07:38:50;;;;;;;38.90;19.38;;;;;;;3.36;66.26;102373.06;5059174;28;20024;-75
2022/03/10 07:41:15;;;;;;;41.38;19.55;;;;;;;3.72;65.92;102372.44;5060924;28;20036;-75
2022/03/10 07:43:41;;;;;;;45.45;20.23;;;;;;;3.98;63.99;102366.66;5054804;28;20092;-75
2022/03/10 07:46:06;;;;;;;42.70;18.92;;;;;;;4.05;64.25;102361.97;5051815;28;20074;-75
2022/03/10 07:48:33;;;;;;;40.58;19.20;;;;;;;4.03;63.54;102367.00;5052111;28;20017;-75
2022/03/10 07:50:59;;;;;;;38.65;18.20;;;;;;;4.00;64.04;102356.47;5052125;28;20085;-75
2022/03/10 07:53:24;;;;;;;43.25;19.67;;;;;;;4.32;63.29;102369.16;5045831;28;20009;-75
2022/03/10 07:55:54;;;;;;;36.40;18.67;;;;;;;4.60;62.64;102360.84;5044293;28;20129;-75
2022/03/10 07:58:22;;;;;;;45.38;19.48;;;;;;;4.95;62.03;102359.00;5047634;28;20033;-75
2022/03/10 08:00:48;;;;;;;38.75;18.50;;;;;;;5.60;59.56;102361.78;5055890;28;20051;-75
2022/03/10 08:03:13;;;;;;;42.38;19.45;;;;;;;6.42;57.53;102356.91;5047773;28;20029;-75
2022/03/10 08:05:38;;;;;;;40.38;18.95;;;;;;;7.21;54.91;102354.06;5047909;28;20033;-74
2022/03/10 08:08:04;;;;;;;38.80;18.55;;;;;;;7.67;53.54;102356.84;5050588;28;20025;-78
2022/03/10 08:10:30;;;;;;;39.15;18.63;;;;;;;8.00;51.83;102351.88;5049618;28;20076;-78
2022/03/10 08:12:55;;;;;;;34.88;18.88;;;;;;;7.91;51.50;102353.94;5048319;28;20025;-78
2022/03/10 08:15:21;;;;;;;36.55;19.20;;;;;;;7.34;52.79;102360.91;5052924;28;20043;-78
2022/03/10 08:17:47;;;;;;;37.15;18.15;;;;;;;6.77;54.46;102372.09;5045805;28;20037;-78
2022/03/10 08:20:13;;;;;;;38.10;18.65;;;;;;;6.34;56.26;102369.31;5045340;28;20083;-78
2022/03/10 08:22:39;;;;;;;36.00;17.95;;;;;;;6.06;56.72;102366.63;5044750;28;20032;-78
2022/03/10 08:25:05;;;;;;;40.38;19.60;;;;;;;5.86;57.72;102360.06;5046759;28;20256;-78
2022/03/10 08:27:30;;;;;;;34.83;18.45;;;;;;;5.72;57.85;102362.63;5057022;28;20048;-79
2022/03/10 08:29:55;;;;;;;38.35;18.60;;;;;;;5.63;58.62;102359.41;5042942;28;20017;-79
2022/03/10 08:32:25;;;;;;;39.38;19.85;;;;;;;5.58;59.29;102360.78;5046039;28;21236;-79
2022/03/10 08:34:50;;;;;;;;;;;;;;;5.62;59.39;102367.06;5056175;28;20057;-80
2022/03/10 08:37:17;;;;;;;35.72;16.98;;;;;;;5.63;59.05;102362.00;5043642;28;20199;-80
2022/03/10 08:39:43;;;;;;;41.40;19.08;;;;;;;5.67;59.63;102358.81;5042704;28;20033;-80
2022/03/10 08:42:08;;;;;;;36.80;18.55;;;;;;;5.71;59.18;102358.25;5049676;28;20044;-79
2022/03/10 08:44:33;;;;;;;36.08;17.58;;;;;;;5.79;60.05;102347.53;5045440;28;20168;-79
2022/03/10 08:46:58;;;;;;;38.20;18.77;;;;;;;5.86;59.42;102349.72;5047916;28;20086;-79
2022/03/10 08:49:24;;;;;;;35.63;17.60;;;;;;;5.95;59.04;102346.84;5047505;28;20013;-79
2022/03/10 08:51:50;;;;;;;34.80;18.17;;;;;;;6.04;58.67;102348.41;5046756;28;20021;-79
2022/03/10 08:54:15;;;;;;;39.80;18.45;;;;;;;6.13;57.85;102350.69;5054007;28;20029;-79
2022/03/10 08:56:40;;;;;;;38.13;17.80;;;;;;;6.21;58.06;102346.94;5047282;28;20052;-79
2022/03/10 08:59:06;;;;;;;33.65;17.40;;;;;;;6.29;57.55;102355.19;5046078;28;20169;-79
2022/03/10 09:01:31;;;;;;;35.33;18.45;;;;;;;6.39;58.69;102347.22;5049924;28;20311;-79
2022/03/10 09:03:56;;;;;;;32.70;17.75;;;;;;;6.50;57.38;102347.03;5051096;28;20271;-79
2022/03/10 09:06:22;;;;;;;35.80;19.05;;;;;;;6.63;56.98;102346.13;5039768;28;20277;-78
2022/03/10 09:08:48;;;;;;;40.35;18.67;;;;;;;6.73;57.17;102344.19;5043882;28;20108;-78
2022/03/10 09:11:14;;;;;;;34.15;17.85;;;;;;;6.88;57.40;102343.38;5044725;28;20164;-78
2022/03/10 09:13:43;;;;;;;34.22;17.65;;;;;;;7.01;56.98;102339.84;5052090;28;20362;-78
2022/03/10 09:16:08;;;;;;;33.25;17.55;;;;;;;7.14;55.59;102337.25;5051132;28;20040;-78
2022/03/10 09:18:34;;;;;;;33.30;18.20;;;;;;;7.27;56.33;102328.50;5054019;28;20016;-78
2022/03/10 09:20:59;;;;;;;36.75;18.63;;;;;;;7.38;55.59;102332.66;5048263;28;20025;-78
2022/03/10 09:23:24;;;;;;;35.47;18.33;;;;;;;7.47;55.72;102322.84;5041621;28;20009;-78
2022/03/10 09:25:50;;;;;;;34.75;17.67;;;;;;;7.59;55.44;102321.75;5044208;28;20044;-78
2022/03/10 09:28:15;;;;;;;33.88;17.80;;;;;;;7.73;55.63;102317.41;5055008;28;20084;-77
2022/03/10 09:30:40;;;;;;;33.30;18.73;;;;;;;7.83;55.15;102323.25;5042532;28;20009;-78
2022/03/10 09:33:06;;;;;;;32.88;17.90;;;;;;;7.95;54.21;102319.53;5029480;28;20018;-79
2022/03/10 09:35:31;;;;;;;37.38;18.88;;;;;;;8.05;54.28;102316.69;5036738;28;20172;-79
2022/03/10 09:37:56;;;;;;;36.97;18.42;;;;;;;8.17;53.72;102306.13;5039337;28;20238;-79
2022/03/10 09:40:22;;;;;;;34.38;17.95;;;;;;;8.29;53.67;102314.59;5042795;28;20014;-77
2022/03/10 09:42:49;;;;;;;34.00;18.13;;;;;;;8.40;52.55;102302.22;5051701;28;20024;-78
2022/03/10 09:45:16;;;;;;;34.83;18.83;;;;;;;8.53;53.92;102309.94;5049649;28;20264;-78
2022/03/10 09:47:45;;;;;;;34.95;18.60;;;;;;;8.63;53.29;102310.41;5047543;28;20010;-78
2022/03/10 09:50:13;;;;;;;35.08;19.52;;;;;;;8.73;53.38;102307.50;5055274;28;20044;-77
2022/03/10 09:52:40;;;;;;;39.75;23.75;;;;;;;8.84;52.63;102298.59;5048477;28;20139;-77
2022/03/10 09:55:06;;;;;;;47.17;31.92;;;;;;;8.97;53.90;102291.47;5046075;28;20025;-78
2022/03/10 09:57:34;;;;;;;38.88;23.58;;;;;;;9.11;51.93;102298.31;5048106;28;20175;-77
2022/03/10 10:00:00;;;;;;;42.65;26.10;;;;;;;9.23;51.76;102291.13;5045087;28;20041;-77
2022/03/10 10:02:27;;;;;;;291.70;165.27;;;;;;;9.33;52.14;102296.84;5035617;28;20010;-77
2022/03/10 10:04:53;;;;;;;90.10;51.63;;;;;;;9.42;51.87;102289.50;5046441;28;20038;-78
2022/03/10 10:07:21;;;;;;;38.28;23.27;;;;;;;9.48;51.08;102289.81;5053053;28;20025;-78
2022/03/10 10:09:53;;;;;;;36.78;20.58;;;;;;;9.53;51.38;102283.16;5046247;28;20367;-78
2022/03/10 10:12:22;;;;;;;37.08;20.40;;;;;;;9.64;50.81;102293.19;5048545;28;20096;-77
2022/03/10 10:14:48;;;;;;;37.13;21.05;;;;;;;9.73;50.62;102291.97;5047136;28;20029;-77
2022/03/10 10:17:14;;;;;;;38.47;20.38;;;;;;;9.83;52.29;102287.22;5058475;28;20020;-73
2022/03/10 10:19:41;;;;;;;37.20;20.20;;;;;;;9.90;50.29;102289.31;5046784;28;20021;-73
2022/03/10 10:22:19;;;;;;;40.13;22.05;;;;;;;10.02;51.59;102286.41;5046421;28;20071;-73
2022/03/10 10:24:52;;;;;;;35.97;19.40;;;;;;;10.12;50.58;102279.94;5041241;28;20026;-73
2022/03/10 10:27:19;;;;;;;38.25;20.63;;;;;;;10.18;51.06;102278.53;5046873;28;20035;-73
2022/03/10 10:29:46;;;;;;;38.30;20.85;;;;;;;10.27;50.20;102268.53;5037669;28;20037;-79
2022/03/10 10:32:11;;;;;;;39.47;21.92;;;;;;;10.36;50.56;102270.72;5033635;28;20096;-81
2022/03/10 10:34:37;;;;;;;40.03;21.23;;;;;;;10.45;50.76;102272.88;5037578;28;20084;-80
2022/03/10 10:37:02;;;;;;;40.40;20.42;;;;;;;10.53;50.08;102276.75;5031086;28;20179;-81
2022/03/10 10:39:28;;;;;;;40.40;22.10;;;;;;;10.65;50.13;102278.16;5030832;28;20029;-81
2022/03/10 10:41:53;;;;;;;39.08;21.73;;;;;;;10.74;49.90;102278.56;5038121;28;20024;-81
2022/03/10 10:44:21;;;;;;;41.15;21.52;;;;;;;10.84;50.98;102272.94;5038922;28;20028;-81
2022/03/10 10:46:49;;;;;;;39.80;21.40;;;;;;;10.90;48.96;102273.22;5038178;28;20025;-81
2022/03/10 10:49:16;;;;;;;41.20;22.27;;;;;;;10.96;49.58;102260.47;5039149;28;20156;-81
2022/03/10 10:51:56;;;;;;;41.28;20.88;;;;;;;11.05;49.45;102257.38;5041893;28;20306;-81
2022/03/10 10:54:21;;;;;;;;;;;;;;;11.12;49.82;102251.59;5041552;28;20332;-81
2022/03/10 10:56:52;;;;;;;45.75;21.88;;;;;;;11.20;48.23;102257.16;5042451;28;20235;-81
2022/03/10 10:59:37;;;;;;;41.88;21.02;;;;;;;11.30;49.04;102254.09;5044407;28;20321;-81
2022/03/10 11:02:04;;;;;;;35.95;18.42;;;;;;;11.41;48.89;102251.97;5046709;28;20025;-81
2022/03/10 11:04:30;;;;;;;39.60;20.80;;;;;;;11.52;49.12;102243.72;5046420;28;20046;-80
2022/03/10 11:06:57;;;;;;;45.50;21.63;;;;;;;11.61;49.48;102242.34;5040667;28;20018;-81
2022/03/10 11:09:22;;;;;;;41.20;21.27;;;;;;;11.70;48.13;102239.22;5046204;28;20025;-80
2022/03/10 11:11:48;;;;;;;47.38;22.05;;;;;;;11.79;50.13;102239.63;5045105;28;20017;-81
2022/03/10 11:14:13;;;;;;;45.88;21.65;;;;;;;11.88;48.01;102230.41;5045951;28;20059;-80
2022/03/10 11:16:42;;;;;;;43.83;21.67;;;;;;;11.96;49.78;102242.06;5034632;28;20046;-80